Time;durP1;ratioP1;P1;durP2;ratioP2;P2;SDS_P1;SDS_P2;PMS_P1;PMS_P2;Temp;Humidity;BMP_temperature;BMP_pressure;BME280_temperature;BME280_humidity;BME280_pressure;Samples;Min_cycle;Max_cycle;Signal;HPM_P1;HPM_P2
2023/07/24 00:00:13;;;;;;;3.00;1.50;;;21.70;73.50;;;;;;5031499;28;20209;-57
2023/07/24 00:02:39;;;;;;;4.63;2.10;;;21.70;73.50;;;;;;5031623;28;20053;-57
2023/07/24 00:05:04;;;;;;;4.13;1.85;;;21.70;73.50;;;;;;5031773;28;20370;-57
2023/07/24 00:07:30;;;;;;;2.33;1.45;;;21.70;73.40;;;;;;5030669;28;20128;-57
2023/07/24 00:09:56;;;;;;;2.38;1.63;;;21.70;73.50;;;;;;5031402;28;20072;-57
2023/07/24 00:12:22;;;;;;;3.28;1.88;;;21.70;73.40;;;;;;5031308;28;20191;-57
2023/07/24 00:14:47;;;;;;;3.15;1.80;;;21.70;73.50;;;;;;5030698;28;20489;-57
2023/07/24 00:17:13;;;;;;;3.38;1.75;;;21.70;73.50;;;;;;5030922;28;20045;-57
2023/07/24 00:19:38;;;;;;;4.93;1.70;;;21.70;73.50;;;;;;5031678;28;20049;-57
2023/07/24 00:22:05;;;;;;;3.90;1.88;;;21.60;73.40;;;;;;5032294;28;20060;-58
2023/07/24 00:24:31;;;;;;;2.85;1.58;;;21.70;73.50;;;;;;5035328;28;20507;-58
2023/07/24 00:26:57;;;;;;;2.85;1.65;;;21.70;73.50;;;;;;5034105;28;20048;-57
2023/07/24 00:29:22;;;;;;;3.08;1.77;;;21.70;73.50;;;;;;5034637;28;20045;-58
2023/07/24 00:31:48;;;;;;;4.90;1.95;;;21.70;73.50;;;;;;5034757;28;20076;-57
2023/07/24 00:34:13;;;;;;;3.85;1.90;;;21.60;73.40;;;;;;5034767;28;20052;-57
2023/07/24 00:36:39;;;;;;;3.03;2.00;;;21.60;73.40;;;;;;5033600;28;20384;-57
2023/07/24 00:39:04;;;;;;;3.88;1.73;;;21.60;73.40;;;;;;5034375;28;20477;-57
2023/07/24 00:41:30;;;;;;;3.13;1.58;;;21.60;73.40;;;;;;5033589;28;20037;-57
2023/07/24 00:43:56;;;;;;;2.97;1.75;;;21.60;73.40;;;;;;5034348;28;20041;-57
2023/07/24 00:46:21;;;;;;;3.00;1.80;;;21.60;73.40;;;;;;5034802;28;20211;-57
2023/07/24 00:48:47;;;;;;;4.78;2.10;;;21.60;73.40;;;;;;5034738;28;20042;-57
2023/07/24 00:51:12;;;;;;;3.13;1.52;;;21.60;73.40;;;;;;5032945;28;20034;-58
2023/07/24 00:53:38;;;;;;;3.15;1.65;;;21.60;73.50;;;;;;5032277;28;20041;-57
2023/07/24 00:56:04;;;;;;;3.03;1.48;;;21.60;73.40;;;;;;5035145;28;20045;-58
2023/07/24 00:58:29;;;;;;;2.83;1.60;;;21.60;73.40;;;;;;5032463;28;20147;-58
2023/07/24 01:00:55;;;;;;;3.38;1.95;;;21.60;73.40;;;;;;5016888;28;20045;-57
2023/07/24 01:03:21;;;;;;;2.78;1.83;;;21.60;73.30;;;;;;5034355;28;20049;-57
2023/07/24 01:05:47;;;;;;;4.20;1.90;;;21.60;73.30;;;;;;5016721;28;20558;-58
2023/07/24 01:08:12;;;;;;;4.03;1.70;;;21.60;73.30;;;;;;5034774;28;20049;-58
2023/07/24 01:10:38;;;;;;;3.15;1.85;;;21.60;73.40;;;;;;5033613;28;20048;-57
2023/07/24 01:13:31;;;;;;;3.08;1.50;;;21.60;73.40;;;;;;5034467;28;20083;-58
2023/07/24 01:16:00;;;;;;;3.35;1.88;;;21.60;73.30;;;;;;5013279;28;20059;-57
2023/07/24 01:18:26;;;;;;;2.88;1.80;;;21.60;73.40;;;;;;5032413;28;20378;-57
2023/07/24 01:20:55;;;;;;;3.70;1.83;;;21.60;73.40;;;;;;5016745;28;20504;-58
2023/07/24 01:23:55;;;;;;;2.20;1.50;;;21.60;73.30;;;;;;5033434;28;20088;-57
2023/07/24 01:26:21;;;;;;;2.97;1.50;;;21.60;73.20;;;;;;5033608;28;20053;-58
2023/07/24 01:28:47;;;;;;;2.78;1.45;;;21.60;73.30;;;;;;5033821;28;20056;-57
2023/07/24 01:31:13;;;;;;;3.15;1.33;;;21.60;73.30;;;;;;5034521;28;20042;-58
2023/07/24 01:33:39;;;;;;;3.97;1.88;;;21.60;73.40;;;;;;5032940;28;20545;-58
2023/07/24 01:36:05;;;;;;;2.50;1.60;;;21.60;73.30;;;;;;5016693;28;20117;-58
2023/07/24 01:38:31;;;;;;;3.08;1.75;;;21.60;73.40;;;;;;5032397;28;20084;-58
2023/07/24 01:40:59;;;;;;;3.45;1.88;;;21.50;73.30;;;;;;5032919;28;20124;-57
2023/07/24 01:43:28;;;;;;;2.58;1.70;;;21.50;73.20;;;;;;5032474;28;20037;-58
2023/07/24 01:45:54;;;;;;;2.67;1.58;;;21.60;73.30;;;;;;5033542;28;20045;-58
2023/07/24 01:48:19;;;;;;;2.95;1.42;;;21.50;73.30;;;;;;5032585;28;20088;-57
2023/07/24 01:50:45;;;;;;;2.70;1.67;;;21.50;73.30;;;;;;5033376;28;20064;-57
2023/07/24 01:53:10;;;;;;;3.03;1.73;;;21.50;73.10;;;;;;5032934;28;20049;-58
2023/07/24 01:55:36;;;;;;;2.92;1.60;;;21.50;73.10;;;;;;5033492;28;20094;-58
2023/07/24 01:58:01;;;;;;;2.83;1.63;;;21.60;73.20;;;;;;5032153;28;20122;-58
2023/07/24 02:00:27;;;;;;;3.30;1.80;;;21.50;73.10;;;;;;5031823;28;20041;-58
2023/07/24 02:02:53;;;;;;;2.30;1.35;;;21.50;73.00;;;;;;5022260;28;20056;-58
2023/07/24 02:05:18;;;;;;;3.08;2.03;;;21.50;73.00;;;;;;5013659;28;20045;-58
2023/07/24 02:07:44;;;;;;;3.55;1.60;;;21.50;73.10;;;;;;5022407;28;20056;-57
2023/07/24 02:10:09;;;;;;;4.03;1.88;;;21.50;73.10;;;;;;5033912;28;20124;-58
2023/07/24 02:12:35;;;;;;;2.58;1.40;;;21.50;73.10;;;;;;5032288;28;20043;-57
2023/07/24 02:15:01;;;;;;;2.83;1.70;;;21.50;73.10;;;;;;5031150;28;20488;-57
2023/07/24 02:17:27;;;;;;;3.58;1.83;;;21.50;73.10;;;;;;5033925;28;20064;-57
2023/07/24 02:19:52;;;;;;;4.30;2.00;;;21.50;73.10;;;;;;5033219;28;20513;-57
2023/07/24 02:22:18;;;;;;;3.67;1.60;;;21.50;73.20;;;;;;5032741;28;20097;-57
2023/07/24 02:24:43;;;;;;;3.17;1.70;;;21.50;73.10;;;;;;5033203;28;20049;-57
2023/07/24 02:27:12;;;;;;;4.07;1.90;;;21.50;73.10;;;;;;5033418;28;20033;-57
2023/07/24 02:29:37;;;;;;;2.85;1.83;;;21.50;73.00;;;;;;5032389;28;20557;-58
2023/07/24 02:32:03;;;;;;;3.28;1.70;;;21.50;73.00;;;;;;5033153;28;20045;-58
2023/07/24 02:34:29;;;;;;;3.35;1.70;;;21.50;73.00;;;;;;5032998;28;20045;-58
2023/07/24 02:36:54;;;;;;;2.85;1.95;;;21.50;73.00;;;;;;5032430;28;20095;-58
2023/07/24 02:39:20;;;;;;;2.70;1.63;;;21.50;73.00;;;;;;5033296;28;20045;-58
2023/07/24 02:41:50;;;;;;;3.00;1.60;;;21.50;73.00;;;;;;5031599;28;20041;-58
2023/07/24 02:44:15;;;;;;;2.70;1.60;;;21.50;73.00;;;;;;5031349;28;20081;-57
2023/07/24 02:46:41;;;;;;;2.92;1.85;;;21.50;73.00;;;;;;5032300;28;20069;-58
2023/07/24 02:49:07;;;;;;;3.78;1.92;;;21.50;72.90;;;;;;5032069;28;20453;-57
2023/07/24 02:51:33;;;;;;;2.65;1.67;;;21.50;72.90;;;;;;5032221;28;20463;-57
2023/07/24 02:53:58;;;;;;;2.88;1.65;;;21.50;73.00;;;;;;5032821;28;20504;-57
2023/07/24 02:56:24;;;;;;;3.40;1.30;;;21.50;73.00;;;;;;5031897;28;20064;-57
2023/07/24 02:58:49;;;;;;;3.72;1.88;;;21.50;73.00;;;;;;5032301;28;20033;-57
2023/07/24 03:01:15;;;;;;;3.05;1.77;;;21.50;73.00;;;;;;5031760;28;20124;-58
2023/07/24 03:03:41;;;;;;;3.42;2.00;;;21.50;73.00;;;;;;5031749;28;20100;-58
2023/07/24 03:06:06;;;;;;;3.58;1.70;;;21.50;73.00;;;;;;5033031;28;20099;-58
2023/07/24 03:08:32;;;;;;;2.47;1.52;;;21.50;73.00;;;;;;5032088;28;20064;-58
2023/07/24 03:10:58;;;;;;;3.30;1.67;;;21.40;72.90;;;;;;5031914;28;20126;-58
2023/07/24 03:13:24;;;;;;;4.18;1.77;;;21.40;72.90;;;;;;5031266;28;20079;-58
2023/07/24 03:15:53;;;;;;;3.85;1.55;;;21.40;72.80;;;;;;5032282;28;20545;-57
2023/07/24 03:18:22;;;;;;;3.40;1.90;;;21.40;72.80;;;;;;5031840;28;20044;-58
2023/07/24 03:20:47;;;;;;;2.90;1.50;;;21.40;72.80;;;;;;5030799;28;20118;-58
2023/07/24 03:23:13;;;;;;;2.53;1.73;;;21.40;72.70;;;;;;5032691;28;20080;-57
2023/07/24 03:25:39;;;;;;;2.22;1.55;;;21.40;72.70;;;;;;5031371;28;20463;-57
2023/07/24 03:28:04;;;;;;;2.92;1.70;;;21.40;72.70;;;;;;5032545;28;20042;-57
2023/07/24 03:30:30;;;;;;;2.72;1.80;;;21.40;72.80;;;;;;5032234;28;20113;-57
2023/07/24 03:32:56;;;;;;;2.65;1.60;;;21.40;72.80;;;;;;5031274;28;20060;-57
2023/07/24 03:35:21;;;;;;;2.95;1.58;;;21.40;72.80;;;;;;5032673;28;20042;-58
2023/07/24 03:37:47;;;;;;;4.18;1.58;;;21.40;72.80;;;;;;5032056;28;20049;-58
2023/07/24 03:40:13;;;;;;;3.97;1.85;;;21.40;72.80;;;;;;5031516;28;20042;-58
2023/07/24 03:42:42;;;;;;;2.78;1.40;;;21.40;72.70;;;;;;5031970;28;20076;-58
2023/07/24 03:45:11;;;;;;;3.00;1.90;;;21.40;72.80;;;;;;5031978;28;20120;-57
2023/07/24 03:47:36;;;;;;;3.22;1.70;;;21.40;72.80;;;;;;5031963;28;20044;-58
2023/07/24 03:50:02;;;;;;;2.50;1.35;;;21.40;72.80;;;;;;5032573;28;20440;-58
2023/07/24 03:52:27;;;;;;;2.35;1.35;;;21.40;72.80;;;;;;5031041;28;20084;-58
2023/07/24 03:54:53;;;;;;;2.63;1.48;;;21.40;72.80;;;;;;5030863;28;20107;-58
2023/07/24 03:57:19;;;;;;;2.83;1.67;;;21.40;72.80;;;;;;5032884;28;20548;-58
2023/07/24 03:59:44;;;;;;;3.17;1.77;;;21.40;72.80;;;;;;5034937;28;20045;-58
2023/07/24 04:02:10;;;;;;;2.85;1.65;;;21.40;72.80;;;;;;5025619;28;20045;-57
2023/07/24 04:04:36;;;;;;;2.90;1.65;;;21.40;72.80;;;;;;5033765;28;20389;-58
2023/07/24 04:07:01;;;;;;;3.42;1.48;;;21.40;72.70;;;;;;5034531;28;20050;-58
2023/07/24 04:09:27;;;;;;;2.50;1.55;;;21.40;72.70;;;;;;5035656;28;20042;-58
2023/07/24 04:11:52;;;;;;;3.05;1.90;;;21.40;72.70;;;;;;5035762;28;20060;-58
2023/07/24 04:14:18;;;;;;;2.67;1.40;;;21.40;72.60;;;;;;5034773;28;20049;-57
2023/07/24 04:16:44;;;;;;;3.00;1.75;;;21.40;72.70;;;;;;5035409;28;20186;-58
2023/07/24 04:19:10;;;;;;;2.58;1.58;;;21.40;72.70;;;;;;5035643;28;20077;-58
2023/07/24 04:21:35;;;;;;;3.20;1.77;;;21.40;72.70;;;;;;5034963;28;20582;-58
2023/07/24 04:24:01;;;;;;;3.85;1.70;;;21.40;72.70;;;;;;5035661;28;20481;-58
2023/07/24 04:26:27;;;;;;;2.80;1.60;;;21.40;72.70;;;;;;5035086;28;20037;-58
2023/07/24 04:28:53;;;;;;;2.55;1.55;;;21.40;72.70;;;;;;5033189;28;20077;-58
2023/07/24 04:31:18;;;;;;;2.33;1.33;;;21.40;72.60;;;;;;5035661;28;20393;-58
2023/07/24 04:33:44;;;;;;;3.05;1.65;;;21.40;72.70;;;;;;5035383;28;20095;-58
2023/07/24 04:36:09;;;;;;;2.88;1.52;;;21.40;72.60;;;;;;5034918;28;20505;-58
2023/07/24 04:38:35;;;;;;;2.92;1.73;;;21.40;72.70;;;;;;5033598;28;20134;-58
2023/07/24 04:41:01;;;;;;;2.65;1.52;;;21.40;72.60;;;;;;5034946;28;20037;-57
2023/07/24 04:43:27;;;;;;;2.67;1.50;;;21.40;72.50;;;;;;5032968;28;20120;-58
2023/07/24 04:45:53;;;;;;;3.03;1.83;;;21.40;72.50;;;;;;5035149;28;20128;-58
2023/07/24 04:48:19;;;;;;;3.10;1.67;;;21.40;72.50;;;;;;5033629;28;20043;-58
2023/07/24 04:50:44;;;;;;;3.22;1.83;;;21.40;72.50;;;;;;5034350;28;20049;-58
2023/07/24 04:53:10;;;;;;;3.45;1.58;;;21.40;72.50;;;;;;5034667;28;20120;-58
2023/07/24 04:55:35;;;;;;;2.70;1.60;;;21.40;72.50;;;;;;5031977;28;20054;-58
2023/07/24 04:58:01;;;;;;;2.50;1.48;;;21.40;72.50;;;;;;5032467;28;20508;-58
2023/07/24 05:00:26;;;;;;;3.08;1.55;;;21.30;72.40;;;;;;5035256;28;20041;-57
2023/07/24 05:02:52;;;;;;;2.67;1.50;;;21.30;72.40;;;;;;5032430;28;20053;-58
2023/07/24 05:05:18;;;;;;;2.53;1.70;;;21.30;72.40;;;;;;5034918;28;20029;-58
2023/07/24 05:07:43;;;;;;;2.22;1.38;;;21.30;72.40;;;;;;5032519;28;20191;-58
2023/07/24 05:10:09;;;;;;;3.00;1.73;;;21.30;72.40;;;;;;5034050;28;20052;-58
2023/07/24 05:12:35;;;;;;;3.58;1.83;;;21.30;72.40;;;;;;5033253;28;20052;-57
2023/07/24 05:15:00;;;;;;;2.70;1.63;;;21.30;72.40;;;;;;5034685;28;20048;-57
2023/07/24 05:17:26;;;;;;;2.70;1.45;;;21.30;72.40;;;;;;5033733;28;20477;-57
2023/07/24 05:19:52;;;;;;;2.53;1.65;;;21.30;72.40;;;;;;5034443;28;20041;-58
2023/07/24 05:22:17;;;;;;;3.28;1.98;;;21.30;72.40;;;;;;5033380;28;20496;-59
2023/07/24 05:24:43;;;;;;;2.92;1.70;;;21.30;72.40;;;;;;5033414;28;20037;-58
2023/07/24 05:27:08;;;;;;;4.38;1.70;;;21.30;72.60;;;;;;5034638;28;20042;-58
2023/07/24 05:29:34;;;;;;;3.78;1.88;;;21.30;72.70;;;;;;5034190;28;20052;-58
2023/07/24 05:31:59;;;;;;;2.95;1.90;;;21.30;72.70;;;;;;5032323;28;20397;-58
2023/07/24 05:34:25;;;;;;;3.05;1.63;;;21.30;72.70;;;;;;5034375;28;20096;-58
2023/07/24 05:36:51;;;;;;;2.85;1.65;;;21.30;72.70;;;;;;5034247;28;20143;-58
2023/07/24 05:39:17;;;;;;;5.93;1.90;;;21.30;72.70;;;;;;5022309;28;20058;-58
2023/07/24 05:41:42;;;;;;;4.90;2.03;;;21.30;72.70;;;;;;5014685;28;20554;-58
2023/07/24 05:44:08;;;;;;;5.13;2.20;;;21.30;72.80;;;;;;5014415;28;20049;-58
2023/07/24 05:46:33;;;;;;;6.28;2.33;;;21.40;72.90;;;;;;5011777;28;20112;-58
2023/07/24 05:49:01;;;;;;;5.35;2.17;;;21.40;73.10;;;;;;5014596;28;20046;-57
2023/07/24 05:51:27;;;;;;;4.30;2.15;;;21.40;73.00;;;;;;5014125;28;20092;-58
2023/07/24 05:53:52;;;;;;;6.53;2.28;;;21.40;73.00;;;;;;5012446;28;20034;-58
2023/07/24 05:56:18;;;;;;;4.38;2.05;;;21.40;73.00;;;;;;5013774;28;20096;-58
2023/07/24 05:58:43;;;;;;;6.63;2.10;;;21.40;73.10;;;;;;5013763;28;20038;-58
2023/07/24 06:01:10;;;;;;;6.47;2.42;;;21.40;73.10;;;;;;5012930;28;20096;-57
2023/07/24 06:03:35;;;;;;;4.38;2.45;;;21.40;73.10;;;;;;5013790;28;20482;-58
2023/07/24 06:06:01;;;;;;;6.60;2.28;;;21.40;73.10;;;;;;5022074;28;20040;-58
2023/07/24 06:08:26;;;;;;;5.20;2.13;;;21.40;73.10;;;;;;5033399;28;20049;-58
2023/07/24 06:10:52;;;;;;;4.45;1.95;;;21.40;73.10;;;;;;5033124;28;20042;-58
2023/07/24 06:13:18;;;;;;;4.38;2.00;;;21.40;73.20;;;;;;5032674;28;20048;-59
2023/07/24 06:15:43;;;;;;;4.40;2.03;;;21.40;73.30;;;;;;5033289;28;20049;-58
2023/07/24 06:18:09;;;;;;;4.03;2.20;;;21.40;73.30;;;;;;5034084;28;20400;-58
2023/07/24 06:20:35;;;;;;;4.90;2.00;;;21.50;73.40;;;;;;5031560;28;20159;-58
2023/07/24 06:23:02;;;;;;;6.28;2.10;;;21.40;73.40;;;;;;5032501;28;20045;-57
2023/07/24 06:25:27;;;;;;;6.55;2.40;;;21.50;73.40;;;;;;5014349;28;20543;-59
2023/07/24 06:27:53;;;;;;;5.80;2.17;;;21.50;73.40;;;;;;5011350;28;20046;-58
2023/07/24 06:30:19;;;;;;;5.15;2.33;;;21.50;73.40;;;;;;5013274;28;20045;-58
2023/07/24 06:32:44;;;;;;;6.95;2.45;;;21.50;73.40;;;;;;5012549;28;20127;-58
2023/07/24 06:35:10;;;;;;;5.85;2.10;;;21.50;73.40;;;;;;5022791;28;20048;-57
2023/07/24 06:37:35;;;;;;;6.60;2.33;;;21.50;73.40;;;;;;5021955;28;20477;-57
2023/07/24 06:40:01;;;;;;;4.00;2.13;;;21.50;73.40;;;;;;5017010;28;20044;-57
2023/07/24 06:42:26;;;;;;;5.07;2.40;;;21.50;73.50;;;;;;5016834;28;20128;-58
2023/07/24 06:44:52;;;;;;;5.25;2.28;;;21.50;73.60;;;;;;5019871;28;20071;-58
2023/07/24 06:47:17;;;;;;;4.88;2.25;;;21.50;73.60;;;;;;5012212;28;20045;-62
2023/07/24 06:49:43;;;;;;;5.93;2.45;;;21.60;73.60;;;;;;5011116;28;20061;-58
2023/07/24 06:52:09;;;;;;;7.78;2.30;;;21.60;73.60;;;;;;5013450;28;20473;-58
2023/07/24 06:54:34;;;;;;;4.80;2.53;;;21.50;73.60;;;;;;5021832;28;20041;-58
2023/07/24 06:57:00;;;;;;;6.55;2.72;;;21.60;73.70;;;;;;5030788;28;20413;-58
2023/07/24 06:59:25;;;;;;;7.20;2.85;;;21.60;73.70;;;;;;5032415;28;20043;-58
2023/07/24 07:01:51;;;;;;;5.90;2.35;;;21.60;73.70;;;;;;5031379;28;20045;-58
2023/07/24 07:04:16;;;;;;;4.65;2.25;;;21.60;73.70;;;;;;5032054;28;20103;-58
2023/07/24 07:06:42;;;;;;;4.03;2.30;;;21.60;73.80;;;;;;5029282;28;20093;-60
2023/07/24 07:09:08;;;;;;;6.35;2.35;;;21.70;73.80;;;;;;5032076;28;20416;-58
2023/07/24 07:11:33;;;;;;;4.95;2.45;;;21.70;73.80;;;;;;5030627;28;20048;-57
2023/07/24 07:13:59;;;;;;;6.55;2.85;;;21.70;73.70;;;;;;5012864;28;20038;-58
2023/07/24 07:16:24;;;;;;;6.90;2.53;;;21.70;73.60;;;;;;5012487;28;20081;-57
2023/07/24 07:18:50;;;;;;;6.88;2.55;;;21.70;73.60;;;;;;5012174;28;20042;-58
2023/07/24 07:21:15;;;;;;;4.63;2.53;;;21.70;73.60;;;;;;5012966;28;20180;-58
2023/07/24 07:23:41;;;;;;;5.13;2.50;;;21.70;73.50;;;;;;5030498;28;20087;-58
2023/07/24 07:26:07;;;;;;;6.60;2.70;;;21.60;73.40;;;;;;5032628;28;20132;-58
2023/07/24 07:28:32;;;;;;;4.90;2.33;;;21.60;73.40;;;;;;5031913;28;20485;-58
2023/07/24 07:30:58;;;;;;;7.25;2.88;;;21.60;73.40;;;;;;5029964;28;20053;-58
2023/07/24 07:33:24;;;;;;;5.40;2.67;;;21.60;73.50;;;;;;5032306;28;20078;-59
2023/07/24 07:35:50;;;;;;;7.20;2.58;;;21.60;73.50;;;;;;5031219;28;20049;-59
2023/07/24 07:38:15;;;;;;;7.72;2.50;;;21.60;73.50;;;;;;5031661;28;20044;-59
2023/07/24 07:40:41;;;;;;;7.93;2.60;;;21.60;73.60;;;;;;5032420;28;20048;-59
2023/07/24 07:43:07;;;;;;;8.52;2.85;;;21.60;73.50;;;;;;5032508;28;20044;-58
2023/07/24 07:45:32;;;;;;;6.68;2.55;;;21.70;73.50;;;;;;5030043;28;20044;-59
2023/07/24 07:47:58;;;;;;;8.32;2.65;;;21.60;73.40;;;;;;5032458;28;20079;-59
2023/07/24 07:50:24;;;;;;;11.10;2.85;;;21.70;73.50;;;;;;5032563;28;20041;-59
2023/07/24 07:52:51;;;;;;;7.88;2.95;;;21.70;73.40;;;;;;5031093;28;20037;-59
2023/07/24 07:55:17;;;;;;;9.98;3.13;;;21.70;73.40;;;;;;5032393;28;20088;-59
2023/07/24 07:57:42;;;;;;;10.38;2.78;;;21.70;73.40;;;;;;5031957;28;20393;-59
2023/07/24 08:00:08;;;;;;;8.43;2.63;;;21.70;73.40;;;;;;5030354;28;20048;-59
2023/07/24 08:02:34;;;;;;;9.45;2.78;;;21.70;73.40;;;;;;5031583;28;20439;-59
2023/07/24 08:05:00;;;;;;;6.90;2.97;;;21.70;73.40;;;;;;5025098;28;20580;-59
2023/07/24 08:07:25;;;;;;;7.82;2.70;;;21.70;73.50;;;;;;5012370;28;20049;-58
2023/07/24 08:09:51;;;;;;;7.20;2.97;;;21.80;73.50;;;;;;5012733;28;20050;-59
2023/07/24 08:12:16;;;;;;;10.52;3.05;;;21.80;73.40;;;;;;5014161;28;20044;-58
2023/07/24 08:14:42;;;;;;;7.35;3.08;;;21.80;73.40;;;;;;5013628;28;20481;-58
2023/07/24 08:17:08;;;;;;;6.82;2.80;;;21.80;73.40;;;;;;5029762;28;20120;-59
2023/07/24 08:19:33;;;;;;;10.32;3.00;;;21.80;73.40;;;;;;5028951;28;20037;-59
2023/07/24 08:21:59;;;;;;;5.40;2.92;;;21.80;73.40;;;;;;5031472;28;20045;-59
2023/07/24 08:24:24;;;;;;;5.90;2.47;;;21.90;73.50;;;;;;5030397;28;20045;-58
2023/07/24 08:26:50;;;;;;;5.57;2.75;;;21.80;73.30;;;;;;5030892;28;20049;-59
2023/07/24 08:29:16;;;;;;;5.97;2.80;;;21.90;73.30;;;;;;5031244;28;20563;-58
2023/07/24 08:31:41;;;;;;;7.35;2.88;;;21.90;73.30;;;;;;5030204;28;20037;-58
2023/07/24 08:34:07;;;;;;;4.32;2.97;;;21.90;73.90;;;;;;5030875;28;20445;-58
2023/07/24 08:36:33;;;;;;;6.75;2.60;;;21.90;73.20;;;;;;5031415;28;20045;-58
2023/07/24 08:38:58;;;;;;;8.05;3.08;;;22.00;73.20;;;;;;5031542;28;20041;-57
2023/07/24 08:41:24;;;;;;;6.22;2.88;;;22.00;73.20;;;;;;5031263;28;20042;-58
2023/07/24 08:43:51;;;;;;;8.90;2.88;;;22.00;73.10;;;;;;5032838;28;20500;-57
2023/07/24 08:46:17;;;;;;;8.80;3.40;;;22.00;73.00;;;;;;5035040;28;20049;-57
2023/07/24 08:48:43;;;;;;;6.15;3.17;;;22.00;72.90;;;;;;5033830;28;20053;-57
2023/07/24 08:51:10;;;;;;;6.75;2.83;;;22.00;72.80;;;;;;5035514;28;20120;-57
2023/07/24 08:53:38;;;;;;;7.90;2.90;;;22.00;72.70;;;;;;5034680;28;20064;-58
2023/07/24 08:56:04;;;;;;;7.72;2.88;;;22.00;72.60;;;;;;5034556;28;20093;-57
2023/07/24 08:58:30;;;;;;;8.10;2.97;;;22.10;72.60;;;;;;5034504;28;20048;-57
2023/07/24 09:00:56;;;;;;;6.32;3.25;;;22.00;72.50;;;;;;5017399;28;20408;-57
2023/07/24 09:03:22;;;;;;;10.98;3.10;;;22.00;72.40;;;;;;5033187;28;20041;-57
2023/07/24 09:05:48;;;;;;;7.10;3.30;;;22.00;72.30;;;;;;5033694;28;20135;-57
2023/07/24 09:08:14;;;;;;;6.28;3.13;;;22.10;72.30;;;;;;5034759;28;20041;-58
2023/07/24 09:10:39;;;;;;;5.53;2.83;;;22.10;72.30;;;;;;5033733;28;20136;-58
2023/07/24 09:13:05;;;;;;;6.70;3.28;;;22.10;72.20;;;;;;5034655;28;20091;-59
2023/07/24 09:15:41;;;;;;;5.35;2.88;;;22.10;72.20;;;;;;5034636;28;20048;-58
2023/07/24 09:18:07;;;;;;;7.18;3.60;;;22.10;72.10;;;;;;5034316;28;20072;-58
2023/07/24 09:20:41;;;;;;;7.30;2.80;;;22.20;72.10;;;;;;5034362;28;20048;-59
2023/07/24 09:23:08;;;;;;;6.57;3.10;;;22.20;72.10;;;;;;5034085;28;20152;-59
2023/07/24 09:25:34;;;;;;;5.78;3.67;;;22.20;72.10;;;;;;5034067;28;20468;-58
2023/07/24 09:27:59;;;;;;;4.70;3.20;;;22.20;72.00;;;;;;5034319;28;20045;-58
2023/07/24 09:30:25;;;;;;;6.03;3.55;;;22.20;71.90;;;;;;5032092;28;20401;-58
2023/07/24 09:32:54;;;;;;;7.57;3.20;;;22.20;71.90;;;;;;5034159;28;20041;-58
2023/07/24 09:35:20;;;;;;;7.95;3.00;;;22.20;71.80;;;;;;5034829;28;20135;-58
2023/07/24 09:37:46;;;;;;;6.60;3.30;;;22.20;71.80;;;;;;5033154;28;20076;-58
2023/07/24 09:40:12;;;;;;;8.50;3.13;;;22.20;71.80;;;;;;5034223;28;20173;-58
2023/07/24 09:42:38;;;;;;;8.70;3.17;;;22.20;71.70;;;;;;5014441;28;20057;-59
2023/07/24 09:45:04;;;;;;;6.47;3.33;;;22.30;72.30;;;;;;5023394;28;20053;-60
2023/07/24 09:47:30;;;;;;;9.60;3.67;;;22.30;71.80;;;;;;5014133;28;20052;-59
2023/07/24 09:49:56;;;;;;;9.73;3.70;;;22.30;71.70;;;;;;5013284;28;20046;-59
2023/07/24 09:52:22;;;;;;;6.43;3.55;;;22.30;71.70;;;;;;5015953;28;20083;-58
2023/07/24 09:55:06;;;;;;;7.85;3.55;;;22.30;71.80;;;;;;5010705;28;20120;-59
2023/07/24 09:57:32;;;;;;;5.43;3.45;;;22.30;71.70;;;;;;5018732;28;20117;-58
2023/07/24 09:59:58;;;;;;;7.55;4.07;;;22.30;71.70;;;;;;5032068;28;20611;-59
2023/07/24 10:02:24;;;;;;;7.90;4.03;;;22.30;72.20;;;;;;5032027;28;20124;-59
2023/07/24 10:04:49;;;;;;;6.63;3.75;;;22.30;72.40;;;;;;5013008;28;20046;-59
2023/07/24 10:07:15;;;;;;;11.50;4.38;;;22.40;72.50;;;;;;5013444;28;20038;-58
2023/07/24 10:09:43;;;;;;;7.97;4.15;;;22.40;72.70;;;;;;5012665;28;20049;-59
2023/07/24 10:12:09;;;;;;;7.53;4.18;;;22.40;72.90;;;;;;5011949;28;20046;-58
2023/07/24 10:14:35;;;;;;;6.47;4.10;;;22.40;73.00;;;;;;5013316;28;20049;-59
2023/07/24 10:17:01;;;;;;;9.77;4.30;;;22.40;73.00;;;;;;5012179;28;20068;-59
2023/07/24 10:19:44;;;;;;;7.63;3.78;;;22.50;73.00;;;;;;5011745;28;20474;-59
2023/07/24 10:22:20;;;;;;;8.68;4.22;;;22.50;73.00;;;;;;5012935;28;20482;-59
2023/07/24 10:24:46;;;;;;;11.35;4.60;;;22.50;72.80;;;;;;4996539;28;20057;-59
2023/07/24 10:27:12;;;;;;;7.25;4.50;;;22.50;72.70;;;;;;5012500;28;20038;-59
2023/07/24 10:29:37;;;;;;;6.97;4.43;;;22.50;72.70;;;;;;5027498;28;20152;-58
2023/07/24 10:32:03;;;;;;;7.50;4.55;;;22.60;72.80;;;;;;5032209;28;20135;-58
2023/07/24 10:34:59;;;;;;;6.50;4.32;;;22.60;72.70;;;;;;5032217;28;20045;-59
2023/07/24 10:37:32;;;;;;;6.22;4.15;;;22.60;72.70;;;;;;5032040;28;20042;-59
2023/07/24 10:39:58;;;;;;;9.40;4.18;;;22.60;72.70;;;;;;5032816;28;20041;-59
2023/07/24 10:42:24;;;;;;;7.50;3.97;;;22.60;72.50;;;;;;5032556;28;20537;-59
2023/07/24 10:44:49;;;;;;;6.95;4.13;;;22.60;72.50;;;;;;5030966;28;20036;-59
2023/07/24 10:47:15;;;;;;;7.45;4.38;;;22.60;72.50;;;;;;5027869;28;20037;-59
2023/07/24 10:49:48;;;;;;;7.82;4.60;;;22.60;72.40;;;;;;5032902;28;20489;-59
2023/07/24 10:52:14;;;;;;;6.45;4.07;;;22.60;72.40;;;;;;5020665;28;20050;-58
2023/07/24 10:54:39;;;;;;;7.18;4.35;;;22.70;72.50;;;;;;5012543;28;20041;-59
2023/07/24 10:57:05;;;;;;;6.38;4.75;;;22.70;72.50;;;;;;5012974;28;20096;-59
2023/07/24 10:59:40;;;;;;;8.27;4.85;;;22.70;72.50;;;;;;5012553;28;20375;-59
2023/07/24 11:02:06;;;;;;;8.35;4.80;;;22.70;72.50;;;;;;5011989;28;20046;-58
2023/07/24 11:04:33;;;;;;;8.30;4.90;;;22.70;72.50;;;;;;4993382;28;20111;-59
2023/07/24 11:06:59;;;;;;;9.98;5.22;;;22.70;72.40;;;;;;5010642;28;20053;-59
2023/07/24 11:09:36;;;;;;;7.95;4.65;;;22.70;72.40;;;;;;5011212;28;20048;-59
2023/07/24 11:12:18;;;;;;;7.80;4.38;;;22.70;72.30;;;;;;5012752;28;20049;-59
2023/07/24 11:14:50;;;;;;;8.77;4.68;;;22.80;72.40;;;;;;5013385;28;20046;-59
2023/07/24 11:17:16;;;;;;;8.73;5.00;;;22.80;72.20;;;;;;5031909;28;20099;-58
2023/07/24 11:19:41;;;;;;;8.95;4.50;;;22.80;72.20;;;;;;5032024;28;20033;-59
2023/07/24 11:22:07;;;;;;;7.90;4.82;;;22.80;72.10;;;;;;5032323;28;20517;-58
2023/07/24 11:24:33;;;;;;;10.02;4.50;;;22.80;72.10;;;;;;5030412;28;20124;-59
2023/07/24 11:26:58;;;;;;;7.45;4.53;;;22.80;72.00;;;;;;5031725;28;20366;-58
2023/07/24 11:29:24;;;;;;;7.80;5.22;;;22.80;71.90;;;;;;5032043;28;20041;-59
2023/07/24 11:31:56;;;;;;;7.13;4.75;;;22.80;71.90;;;;;;5031958;28;20061;-59
2023/07/24 11:34:22;;;;;;;8.88;5.03;;;22.80;71.80;;;;;;5031056;28;20045;-59
2023/07/24 11:36:48;;;;;;;8.32;4.68;;;22.80;71.80;;;;;;5030098;28;20076;-59
2023/07/24 11:39:21;;;;;;;7.22;4.75;;;22.80;71.90;;;;;;5032439;28;20073;-59
2023/07/24 11:41:47;;;;;;;6.70;4.38;;;22.80;71.80;;;;;;5032037;28;20469;-58
2023/07/24 11:44:16;;;;;;;7.95;4.60;;;22.80;71.80;;;;;;5031538;28;20091;-58
2023/07/24 11:46:42;;;;;;;8.45;4.75;;;22.80;71.80;;;;;;5032461;28;20045;-59
2023/07/24 11:49:07;;;;;;;7.38;4.35;;;22.80;71.80;;;;;;5031950;28;20045;-59
2023/07/24 11:51:33;;;;;;;8.07;4.68;;;22.80;71.90;;;;;;5029920;28;20041;-59
2023/07/24 11:54:09;;;;;;;7.60;4.97;;;22.80;71.90;;;;;;5030947;28;20120;-58
2023/07/24 11:56:34;;;;;;;9.13;4.63;;;22.80;71.80;;;;;;5030099;28;20497;-59
2023/07/24 11:59:13;;;;;;;6.45;4.68;;;22.80;71.80;;;;;;5030801;28;20199;-58
2023/07/24 12:01:39;;;;;;;7.43;4.45;;;22.80;71.90;;;;;;5029685;28;20045;-59
2023/07/24 12:04:04;;;;;;;6.78;4.57;;;22.80;71.90;;;;;;5031683;28;20046;-59
2023/07/24 12:06:33;;;;;;;7.88;4.47;;;22.80;71.90;;;;;;5030288;28;20041;-59
2023/07/24 12:09:08;;;;;;;8.32;4.30;;;22.80;71.80;;;;;;5031197;28;20037;-58
2023/07/24 12:11:38;;;;;;;7.70;5.28;;;22.80;71.70;;;;;;5030365;28;20092;-58
2023/07/24 12:14:04;;;;;;;7.22;4.30;;;22.80;71.80;;;;;;5031305;28;20045;-58
2023/07/24 12:16:30;;;;;;;6.88;4.30;;;22.80;71.80;;;;;;5030965;28;20057;-58
2023/07/24 12:18:56;;;;;;;6.75;4.07;;;22.80;72.30;;;;;;5032275;28;20516;-58
2023/07/24 12:21:21;;;;;;;7.70;4.50;;;22.80;71.70;;;;;;5033776;28;20528;-58
2023/07/24 12:23:47;;;;;;;6.75;4.10;;;22.80;71.70;;;;;;5034614;28;20037;-59
2023/07/24 12:26:13;;;;;;;5.65;4.05;;;22.80;71.70;;;;;;5033887;28;20052;-58
2023/07/24 12:28:38;;;;;;;7.63;4.20;;;22.80;71.70;;;;;;5033134;28;20477;-59
2023/07/24 12:31:04;;;;;;;7.68;4.10;;;22.80;71.70;;;;;;5033616;28;20049;-58
2023/07/24 12:33:29;;;;;;;7.72;4.30;;;22.80;71.60;;;;;;5033549;28;20381;-59
2023/07/24 12:35:55;;;;;;;7.60;4.60;;;22.80;71.60;;;;;;5033335;28;20138;-58
2023/07/24 12:38:21;;;;;;;8.43;4.53;;;22.80;71.60;;;;;;5034517;28;20036;-58
2023/07/24 12:40:46;;;;;;;6.93;4.28;;;22.80;71.60;;;;;;5033340;28;20114;-58